sensor_id;sensor_type;location;lat;lon;timestamp;pressure;altitude;pressure_sealevel;temperature;humidity
64792;BME280;51226;47.504;19.074;2024-01-15T00:00:51;99106.50;;;1.67;66.50
64792;BME280;51226;47.504;19.074;2024-01-15T00:04:14;99086.03;;;1.69;66.27
64792;BME280;51226;47.504;19.074;2024-01-15T00:07:17;99080.25;;;1.73;66.26
64792;BME280;51226;47.504;19.074;2024-01-15T00:10:20;99076.22;;;1.78;66.13
64792;BME280;51226;47.504;19.074;2024-01-15T00:13:23;99081.47;;;1.79;66.18
64792;BME280;51226;47.504;19.074;2024-01-15T00:16:26;99081.13;;;1.90;65.92
64792;BME280;51226;47.504;19.074;2024-01-15T00:19:28;99070.06;;;2.09;65.04
64792;BME280;51226;47.504;19.074;2024-01-15T00:22:35;99060.78;;;1.94;65.30
64792;BME280;51226;47.504;19.074;2024-01-15T00:25:38;99042.97;;;1.81;65.63
64792;BME280;51226;47.504;19.074;2024-01-15T00:28:40;99031.25;;;1.70;66.42
64792;BME280;51226;47.504;19.074;2024-01-15T00:31:43;99030.41;;;1.69;66.53
64792;BME280;51226;47.504;19.074;2024-01-15T00:34:46;99024.59;;;1.73;66.26
64792;BME280;51226;47.504;19.074;2024-01-15T00:37:49;99010.19;;;1.77;66.01
64792;BME280;51226;47.504;19.074;2024-01-15T00:40:52;99008.75;;;1.82;65.74
64792;BME280;51226;47.504;19.074;2024-01-15T00:43:54;99013.97;;;1.83;65.84
64792;BME280;51226;47.504;19.074;2024-01-15T00:46:57;99017.66;;;1.89;65.67
64792;BME280;51226;47.504;19.074;2024-01-15T00:50:00;99014.28;;;1.90;65.72
64792;BME280;51226;47.504;19.074;2024-01-15T00:53:03;99024.72;;;1.93;65.64
64792;BME280;51226;47.504;19.074;2024-01-15T00:56:05;99015.31;;;1.93;65.59
64792;BME280;51226;47.504;19.074;2024-01-15T00:59:09;99015.47;;;1.96;65.64
64792;BME280;51226;47.504;19.074;2024-01-15T01:02:12;99010.31;;;1.96;65.67
64792;BME280;51226;47.504;19.074;2024-01-15T01:05:15;99008.00;;;2.01;65.56
64792;BME280;51226;47.504;19.074;2024-01-15T01:08:18;99006.97;;;1.97;65.54
64792;BME280;51226;47.504;19.074;2024-01-15T01:11:21;98996.75;;;1.99;65.71
64792;BME280;51226;47.504;19.074;2024-01-15T01:14:23;98993.50;;;2.03;65.75
64792;BME280;51226;47.504;19.074;2024-01-15T01:17:27;98987.06;;;2.11;65.17
64792;BME280;51226;47.504;19.074;2024-01-15T01:20:30;98981.69;;;2.07;65.09
64792;BME280;51226;47.504;19.074;2024-01-15T01:23:33;98975.94;;;1.94;65.56
64792;BME280;51226;47.504;19.074;2024-01-15T01:26:36;98976.50;;;1.89;65.76
64792;BME280;51226;47.504;19.074;2024-01-15T01:29:39;98977.34;;;1.88;66.04
64792;BME280;51226;47.504;19.074;2024-01-15T01:32:41;98969.56;;;1.86;66.26
64792;BME280;51226;47.504;19.074;2024-01-15T01:35:44;98959.91;;;1.82;66.50
64792;BME280;51226;47.504;19.074;2024-01-15T01:38:47;98964.50;;;1.88;66.59
64792;BME280;51226;47.504;19.074;2024-01-15T01:41:50;98965.31;;;2.04;66.06
64792;BME280;51226;47.504;19.074;2024-01-15T01:44:52;98950.00;;;1.90;66.73
64792;BME280;51226;47.504;19.074;2024-01-15T01:47:55;98947.72;;;1.78;67.01
64792;BME280;51226;47.504;19.074;2024-01-15T01:50:59;98944.16;;;1.58;68.15
64792;BME280;51226;47.504;19.074;2024-01-15T01:54:03;98943.28;;;1.57;68.30
64792;BME280;51226;47.504;19.074;2024-01-15T01:57:06;98937.66;;;1.64;67.88
64792;BME280;51226;47.504;19.074;2024-01-15T02:00:10;98936.81;;;1.47;68.43
64792;BME280;51226;47.504;19.074;2024-01-15T02:03:13;98925.41;;;1.42;68.92
64792;BME280;51226;47.504;19.074;2024-01-15T02:06:16;98913.38;;;1.41;69.00
64792;BME280;51226;47.504;19.074;2024-01-15T02:09:19;98921.06;;;1.41;69.06
64792;BME280;51226;47.504;19.074;2024-01-15T02:12:22;98920.69;;;1.34;69.59
64792;BME280;51226;47.504;19.074;2024-01-15T02:15:24;98896.97;;;1.21;70.29
64792;BME280;51226;47.504;19.074;2024-01-15T02:18:27;98892.56;;;1.19;70.43
64792;BME280;51226;47.504;19.074;2024-01-15T02:21:31;98905.06;;;1.29;70.52
64792;BME280;51226;47.504;19.074;2024-01-15T02:24:34;98901.63;;;1.12;71.28
64792;BME280;51226;47.504;19.074;2024-01-15T02:27:36;98923.78;;;0.77;73.03
64792;BME280;51226;47.504;19.074;2024-01-15T02:30:40;98912.00;;;0.64;74.03
64792;BME280;51226;47.504;19.074;2024-01-15T02:33:43;98917.19;;;0.49;74.80
64792;BME280;51226;47.504;19.074;2024-01-15T02:36:48;98904.44;;;0.51;74.98
64792;BME280;51226;47.504;19.074;2024-01-15T02:39:51;98897.00;;;0.55;75.29
64792;BME280;51226;47.504;19.074;2024-01-15T02:42:54;98896.91;;;0.54;75.35
64792;BME280;51226;47.504;19.074;2024-01-15T02:45:57;98883.59;;;0.61;75.19
64792;BME280;51226;47.504;19.074;2024-01-15T02:48:59;98877.34;;;0.56;75.45
64792;BME280;51226;47.504;19.074;2024-01-15T02:52:03;98880.34;;;0.64;75.35
64792;BME280;51226;47.504;19.074;2024-01-15T02:55:05;98883.59;;;0.78;74.67
64792;BME280;51226;47.504;19.074;2024-01-15T02:58:08;98880.78;;;0.89;73.95
64792;BME280;51226;47.504;19.074;2024-01-15T03:01:11;98878.22;;;0.89;74.04
64792;BME280;51226;47.504;19.074;2024-01-15T03:04:14;98883.19;;;0.86;74.15
64792;BME280;51226;47.504;19.074;2024-01-15T03:07:17;98882.16;;;0.66;74.95
64792;BME280;51226;47.504;19.074;2024-01-15T03:10:20;98867.88;;;0.71;75.34
64792;BME280;51226;47.504;19.074;2024-01-15T03:13:22;98858.53;;;0.55;75.91
64792;BME280;51226;47.504;19.074;2024-01-15T03:16:25;98845.88;;;0.59;76.15
64792;BME280;51226;47.504;19.074;2024-01-15T03:19:28;98831.44;;;0.61;76.04
64792;BME280;51226;47.504;19.074;2024-01-15T03:22:30;98835.72;;;0.62;75.86
64792;BME280;51226;47.504;19.074;2024-01-15T03:25:33;98839.19;;;0.62;75.94
64792;BME280;51226;47.504;19.074;2024-01-15T03:28:36;98827.56;;;0.52;76.29
64792;BME280;51226;47.504;19.074;2024-01-15T03:31:38;98823.72;;;0.61;76.00
64792;BME280;51226;47.504;19.074;2024-01-15T03:34:41;98825.38;;;0.60;76.29
64792;BME280;51226;47.504;19.074;2024-01-15T03:37:44;98838.38;;;0.63;76.17
64792;BME280;51226;47.504;19.074;2024-01-15T03:40:47;98845.69;;;0.72;75.70
64792;BME280;51226;47.504;19.074;2024-01-15T03:43:49;98859.94;;;0.83;75.50
64792;BME280;51226;47.504;19.074;2024-01-15T03:46:52;98839.03;;;0.92;75.26
64792;BME280;51226;47.504;19.074;2024-01-15T03:49:54;98853.84;;;0.98;74.76
64792;BME280;51226;47.504;19.074;2024-01-15T03:52:57;98871.34;;;1.23;73.52
64792;BME280;51226;47.504;19.074;2024-01-15T03:56:00;98856.66;;;1.20;73.27
64792;BME280;51226;47.504;19.074;2024-01-15T03:59:02;98853.91;;;1.16;73.08
64792;BME280;51226;47.504;19.074;2024-01-15T04:02:05;98857.91;;;1.10;73.44
64792;BME280;51226;47.504;19.074;2024-01-15T04:05:08;98853.34;;;1.05;73.67
64792;BME280;51226;47.504;19.074;2024-01-15T04:08:10;98852.88;;;1.12;73.50
64792;BME280;51226;47.504;19.074;2024-01-15T04:11:13;98849.63;;;1.16;72.60
64792;BME280;51226;47.504;19.074;2024-01-15T04:14:16;98859.41;;;1.07;73.18
64792;BME280;51226;47.504;19.074;2024-01-15T04:17:18;98829.88;;;0.81;74.36
64792;BME280;51226;47.504;19.074;2024-01-15T04:20:21;98821.75;;;0.89;74.22
64792;BME280;51226;47.504;19.074;2024-01-15T04:23:27;98820.16;;;0.75;74.64
64792;BME280;51226;47.504;19.074;2024-01-15T04:26:30;98799.66;;;0.75;74.75
64792;BME280;51226;47.504;19.074;2024-01-15T04:29:32;98807.84;;;0.68;75.43
64792;BME280;51226;47.504;19.074;2024-01-15T04:32:35;98804.78;;;0.75;74.98
64792;BME280;51226;47.504;19.074;2024-01-15T04:35:38;98808.44;;;0.97;73.90
64792;BME280;51226;47.504;19.074;2024-01-15T04:38:41;98804.47;;;1.03;73.63
64792;BME280;51226;47.504;19.074;2024-01-15T04:41:44;98790.56;;;0.82;74.30
64792;BME280;51226;47.504;19.074;2024-01-15T04:44:47;98788.44;;;0.73;74.95
64792;BME280;51226;47.504;19.074;2024-01-15T04:47:49;98806.38;;;0.73;75.13
64792;BME280;51226;47.504;19.074;2024-01-15T04:50:52;98808.16;;;0.90;73.90
64792;BME280;51226;47.504;19.074;2024-01-15T04:53:55;98801.81;;;0.84;73.87
64792;BME280;51226;47.504;19.074;2024-01-15T04:56:57;98797.06;;;0.75;74.09
64792;BME280;51226;47.504;19.074;2024-01-15T05:00:00;98797.34;;;0.63;74.40
64792;BME280;51226;47.504;19.074;2024-01-15T05:03:03;98801.34;;;0.58;74.87
64792;BME280;51226;47.504;19.074;2024-01-15T05:06:06;98806.03;;;0.49;75.47
64792;BME280;51226;47.504;19.074;2024-01-15T05:09:09;98806.56;;;0.60;74.95
64792;BME280;51226;47.504;19.074;2024-01-15T05:12:12;98807.69;;;0.65;74.65
64792;BME280;51226;47.504;19.074;2024-01-15T05:15:15;98803.50;;;0.67;74.67
64792;BME280;51226;47.504;19.074;2024-01-15T05:18:18;98819.53;;;0.79;74.03
64792;BME280;51226;47.504;19.074;2024-01-15T05:21:21;98823.84;;;0.80;74.28
64792;BME280;51226;47.504;19.074;2024-01-15T05:24:24;98825.88;;;0.69;74.59
64792;BME280;51226;47.504;19.074;2024-01-15T05:27:29;98821.31;;;0.64;74.99
64792;BME280;51226;47.504;19.074;2024-01-15T05:30:31;98819.37;;;0.76;74.42
64792;BME280;51226;47.504;19.074;2024-01-15T05:33:34;98816.66;;;0.73;74.49
64792;BME280;51226;47.504;19.074;2024-01-15T05:36:37;98814.16;;;0.91;73.79
64792;BME280;51226;47.504;19.074;2024-01-15T05:39:40;98815.97;;;0.93;73.46
64792;BME280;51226;47.504;19.074;2024-01-15T05:42:42;98820.00;;;0.88;73.69
64792;BME280;51226;47.504;19.074;2024-01-15T05:45:45;98822.63;;;0.90;73.57
64792;BME280;51226;47.504;19.074;2024-01-15T05:48:48;98824.34;;;0.89;73.34
64792;BME280;51226;47.504;19.074;2024-01-15T05:51:51;98820.16;;;0.91;73.10
64792;BME280;51226;47.504;19.074;2024-01-15T05:54:54;98832.34;;;0.96;72.83
64792;BME280;51226;47.504;19.074;2024-01-15T05:57:56;98824.72;;;0.97;72.93
64792;BME280;51226;47.504;19.074;2024-01-15T06:00:59;98806.97;;;1.02;73.11
64792;BME280;51226;47.504;19.074;2024-01-15T06:04:02;98821.91;;;1.09;73.12
64792;BME280;51226;47.504;19.074;2024-01-15T06:07:05;98814.47;;;1.15;72.67
64792;BME280;51226;47.504;19.074;2024-01-15T06:10:08;98802.63;;;1.17;72.58
64792;BME280;51226;47.504;19.074;2024-01-15T06:13:11;98799.16;;;1.17;72.53
64792;BME280;51226;47.504;19.074;2024-01-15T06:16:16;98798.19;;;1.15;72.24
64792;BME280;51226;47.504;19.074;2024-01-15T06:19:21;98805.97;;;1.16;71.82
64792;BME280;51226;47.504;19.074;2024-01-15T06:22:24;98809.50;;;1.18;71.52
64792;BME280;51226;47.504;19.074;2024-01-15T06:25:26;98802.69;;;1.19;71.39
64792;BME280;51226;47.504;19.074;2024-01-15T06:28:30;98805.19;;;1.17;71.31
64792;BME280;51226;47.504;19.074;2024-01-15T06:31:33;98810.00;;;1.11;71.24
64792;BME280;51226;47.504;19.074;2024-01-15T06:34:36;98809.06;;;1.09;70.69
64792;BME280;51226;47.504;19.074;2024-01-15T06:37:38;98803.63;;;1.03;70.62
64792;BME280;51226;47.504;19.074;2024-01-15T06:40:41;98812.75;;;1.14;69.89
64792;BME280;51226;47.504;19.074;2024-01-15T06:43:47;98814.94;;;0.90;69.58
64792;BME280;51226;47.504;19.074;2024-01-15T06:46:51;98830.22;;;0.54;71.17
64792;BME280;51226;47.504;19.074;2024-01-15T06:49:54;98831.59;;;0.47;72.09
64792;BME280;51226;47.504;19.074;2024-01-15T06:52:57;98832.12;;;0.58;71.83
64792;BME280;51226;47.504;19.074;2024-01-15T06:56:00;98829.97;;;0.49;72.43
64792;BME280;51226;47.504;19.074;2024-01-15T06:59:03;98821.00;;;0.58;72.21
64792;BME280;51226;47.504;19.074;2024-01-15T07:02:05;98814.00;;;0.55;72.65
64792;BME280;51226;47.504;19.074;2024-01-15T07:05:08;98817.56;;;0.57;72.94
64792;BME280;51226;47.504;19.074;2024-01-15T07:08:11;98824.84;;;0.66;72.93
64792;BME280;51226;47.504;19.074;2024-01-15T07:11:14;98818.72;;;0.80;72.44
64792;BME280;51226;47.504;19.074;2024-01-15T07:14:16;98826.97;;;0.91;72.14
64792;BME280;51226;47.504;19.074;2024-01-15T07:17:19;98827.22;;;0.96;71.92
64792;BME280;51226;47.504;19.074;2024-01-15T07:20:21;98830.75;;;0.81;72.45
64792;BME280;51226;47.504;19.074;2024-01-15T07:23:24;98831.09;;;0.71;72.99
64792;BME280;51226;47.504;19.074;2024-01-15T07:26:30;98854.00;;;0.51;74.03
64792;BME280;51226;47.504;19.074;2024-01-15T07:29:35;98851.28;;;0.32;75.04
64792;BME280;51226;47.504;19.074;2024-01-15T07:32:40;98862.72;;;0.22;75.70
64792;BME280;51226;47.504;19.074;2024-01-15T07:35:44;98853.50;;;0.09;76.34
64792;BME280;51226;47.504;19.074;2024-01-15T07:38:46;98850.00;;;0.24;76.32
64792;BME280;51226;47.504;19.074;2024-01-15T07:41:50;98857.59;;;0.22;76.34
64792;BME280;51226;47.504;19.074;2024-01-15T07:44:52;98855.44;;;0.30;76.14
64792;BME280;51226;47.504;19.074;2024-01-15T07:47:55;98859.00;;;0.32;76.19
64792;BME280;51226;47.504;19.074;2024-01-15T07:50:58;98860.41;;;0.43;75.87
64792;BME280;51226;47.504;19.074;2024-01-15T07:54:01;98868.22;;;0.61;74.87
64792;BME280;51226;47.504;19.074;2024-01-15T07:57:04;98863.09;;;0.61;74.34
64792;BME280;51226;47.504;19.074;2024-01-15T08:00:07;98866.22;;;0.55;74.87
64792;BME280;51226;47.504;19.074;2024-01-15T08:03:12;98856.81;;;0.56;75.67
64792;BME280;51226;47.504;19.074;2024-01-15T08:06:15;98860.59;;;0.79;74.80
64792;BME280;51226;47.504;19.074;2024-01-15T08:09:19;98854.09;;;1.02;74.57
64792;BME280;51226;47.504;19.074;2024-01-15T08:12:21;98840.50;;;1.39;73.56
64792;BME280;51226;47.504;19.074;2024-01-15T08:15:24;98859.81;;;1.85;71.27
64792;BME280;51226;47.504;19.074;2024-01-15T08:18:32;98849.91;;;2.30;69.65
64792;BME280;51226;47.504;19.074;2024-01-15T08:21:35;98853.25;;;2.86;65.42
64792;BME280;51226;47.504;19.074;2024-01-15T08:24:38;98852.75;;;3.36;60.66
64792;BME280;51226;47.504;19.074;2024-01-15T08:27:41;98858.03;;;3.81;59.74
64792;BME280;51226;47.504;19.074;2024-01-15T08:30:45;98859.84;;;4.50;55.42
64792;BME280;51226;47.504;19.074;2024-01-15T08:33:48;98859.72;;;5.19;54.11
64792;BME280;51226;47.504;19.074;2024-01-15T08:36:51;98856.03;;;5.91;49.98
64792;BME280;51226;47.504;19.074;2024-01-15T08:39:56;98860.38;;;6.77;47.13
64792;BME280;51226;47.504;19.074;2024-01-15T08:42:59;98864.06;;;7.87;44.91
64792;BME280;51226;47.504;19.074;2024-01-15T08:46:02;98860.59;;;8.61;44.32
64792;BME280;51226;47.504;19.074;2024-01-15T08:49:05;98854.31;;;9.91;40.35
64792;BME280;51226;47.504;19.074;2024-01-15T08:52:08;98855.97;;;11.13;37.11
64792;BME280;51226;47.504;19.074;2024-01-15T08:55:11;98850.78;;;12.17;35.71
64792;BME280;51226;47.504;19.074;2024-01-15T08:58:15;98856.41;;;12.96;34.19
64792;BME280;51226;47.504;19.074;2024-01-15T09:01:18;98861.78;;;13.36;33.18
64792;BME280;51226;47.504;19.074;2024-01-15T09:04:21;98852.13;;;14.63;30.32
64792;BME280;51226;47.504;19.074;2024-01-15T09:07:24;98852.31;;;15.90;28.73
64792;BME280;51226;47.504;19.074;2024-01-15T09:10:28;98848.19;;;16.53;27.42
64792;BME280;51226;47.504;19.074;2024-01-15T09:13:31;98840.91;;;16.75;26.38
64792;BME280;51226;47.504;19.074;2024-01-15T09:16:34;98857.66;;;17.39;26.33
64792;BME280;51226;47.504;19.074;2024-01-15T09:19:36;98840.75;;;18.58;24.37
64792;BME280;51226;47.504;19.074;2024-01-15T09:22:39;98838.97;;;19.04;23.89
64792;BME280;51226;47.504;19.074;2024-01-15T09:25:44;98840.41;;;19.19;22.67
64792;BME280;51226;47.504;19.074;2024-01-15T09:28:46;98845.72;;;19.56;23.03
64792;BME280;51226;47.504;19.074;2024-01-15T09:31:49;98829.19;;;21.44;21.52
64792;BME280;51226;47.504;19.074;2024-01-15T09:34:52;98817.41;;;23.05;19.31
64792;BME280;51226;47.504;19.074;2024-01-15T09:37:55;98816.09;;;23.63;18.43
64792;BME280;51226;47.504;19.074;2024-01-15T09:40:58;98820.22;;;23.48;18.34
64792;BME280;51226;47.504;19.074;2024-01-15T09:44:01;98809.78;;;24.08;18.40
64792;BME280;51226;47.504;19.074;2024-01-15T09:47:04;98804.47;;;24.29;17.71
64792;BME280;51226;47.504;19.074;2024-01-15T09:50:08;98800.72;;;23.70;17.97
64792;BME280;51226;47.504;19.074;2024-01-15T09:53:11;98803.06;;;23.99;17.95
64792;BME280;51226;47.504;19.074;2024-01-15T09:56:14;98791.44;;;25.40;16.68
64792;BME280;51226;47.504;19.074;2024-01-15T09:59:19;98785.00;;;26.33;15.67
64792;BME280;51226;47.504;19.074;2024-01-15T10:02:21;98769.09;;;25.96;15.96
64792;BME280;51226;47.504;19.074;2024-01-15T10:05:24;98778.38;;;25.33;16.43
64792;BME280;51226;47.504;19.074;2024-01-15T10:08:27;98769.50;;;25.69;15.77
64792;BME280;51226;47.504;19.074;2024-01-15T10:11:30;98762.38;;;25.33;15.79
64792;BME280;51226;47.504;19.074;2024-01-15T10:14:33;98760.75;;;23.49;16.72
64792;BME280;51226;47.504;19.074;2024-01-15T10:17:36;98759.88;;;22.07;18.69
64792;BME280;51226;47.504;19.074;2024-01-15T10:20:39;98759.06;;;23.68;17.10
64792;BME280;51226;47.504;19.074;2024-01-15T10:23:42;98739.75;;;25.95;15.40
64792;BME280;51226;47.504;19.074;2024-01-15T10:26:45;98731.66;;;27.75;13.98
64792;BME280;51226;47.504;19.074;2024-01-15T10:29:47;98735.13;;;29.22;13.01
64792;BME280;51226;47.504;19.074;2024-01-15T10:32:57;98730.00;;;30.25;12.07
64792;BME280;51226;47.504;19.074;2024-01-15T10:36:00;98719.75;;;31.18;11.56
64792;BME280;51226;47.504;19.074;2024-01-15T10:39:03;98711.72;;;32.13;11.14
64792;BME280;51226;47.504;19.074;2024-01-15T10:42:06;98716.16;;;33.05;10.07
64792;BME280;51226;47.504;19.074;2024-01-15T10:45:10;98710.53;;;32.85;10.27
64792;BME280;51226;47.504;19.074;2024-01-15T10:48:13;98708.16;;;32.24;10.68
64792;BME280;51226;47.504;19.074;2024-01-15T10:51:15;98715.38;;;31.17;11.07
64792;BME280;51226;47.504;19.074;2024-01-15T10:54:19;98721.63;;;30.55;11.51
64792;BME280;51226;47.504;19.074;2024-01-15T10:57:22;98716.72;;;30.86;11.43
64792;BME280;51226;47.504;19.074;2024-01-15T11:00:26;98727.56;;;31.94;10.86
64792;BME280;51226;47.504;19.074;2024-01-15T11:03:31;98718.78;;;32.61;10.39
64792;BME280;51226;47.504;19.074;2024-01-15T11:06:44;98720.19;;;32.99;10.38
64792;BME280;51226;47.504;19.074;2024-01-15T11:09:47;98725.69;;;33.32;10.09
64792;BME280;51226;47.504;19.074;2024-01-15T11:12:50;98710.97;;;33.57;9.76
64792;BME280;51226;47.504;19.074;2024-01-15T11:19:03;98699.53;;;33.21;9.93
64792;BME280;51226;47.504;19.074;2024-01-15T11:25:35;98700.84;;;32.83;10.20
64792;BME280;51226;47.504;19.074;2024-01-15T11:28:49;98692.72;;;32.15;10.45
64792;BME280;51226;47.504;19.074;2024-01-15T11:34:58;98699.00;;;29.41;12.09
64792;BME280;51226;47.504;19.074;2024-01-15T11:38:02;98688.28;;;27.53;13.33
64792;BME280;51226;47.504;19.074;2024-01-15T11:41:14;98689.22;;;25.55;15.20
64792;BME280;51226;47.504;19.074;2024-01-15T11:44:20;98672.41;;;23.41;17.30
64792;BME280;51226;47.504;19.074;2024-01-15T11:50:46;98695.84;;;20.23;20.00
64792;BME280;51226;47.504;19.074;2024-01-15T11:53:51;98691.63;;;19.14;21.17
64792;BME280;51226;47.504;19.074;2024-01-15T11:56:56;98677.03;;;18.58;22.02
64792;BME280;51226;47.504;19.074;2024-01-15T11:59:59;98664.81;;;18.12;22.41
64792;BME280;51226;47.504;19.074;2024-01-15T12:03:02;98669.16;;;17.68;22.86
64792;BME280;51226;47.504;19.074;2024-01-15T12:06:08;98669.31;;;17.58;23.00
64792;BME280;51226;47.504;19.074;2024-01-15T12:09:11;98665.25;;;17.40;23.36
64792;BME280;51226;47.504;19.074;2024-01-15T12:12:16;98667.75;;;17.48;23.33
64792;BME280;51226;47.504;19.074;2024-01-15T12:15:27;98670.44;;;18.78;21.91
64792;BME280;51226;47.504;19.074;2024-01-15T12:18:31;98667.66;;;20.51;20.04
64792;BME280;51226;47.504;19.074;2024-01-15T12:21:34;98652.50;;;21.65;18.93
64792;BME280;51226;47.504;19.074;2024-01-15T12:24:37;98640.59;;;22.49;17.83
64792;BME280;51226;47.504;19.074;2024-01-15T12:27:40;98646.03;;;22.68;17.50
64792;BME280;51226;47.504;19.074;2024-01-15T12:30:45;98636.47;;;22.86;17.46
64792;BME280;51226;47.504;19.074;2024-01-15T12:33:51;98627.75;;;22.83;17.64
64792;BME280;51226;47.504;19.074;2024-01-15T12:36:56;98609.31;;;23.00;17.59
64792;BME280;51226;47.504;19.074;2024-01-15T12:39:59;98619.75;;;23.27;17.11
64792;BME280;51226;47.504;19.074;2024-01-15T12:43:02;98621.06;;;23.17;17.32
64792;BME280;51226;47.504;19.074;2024-01-15T12:46:05;98615.88;;;23.13;17.28
64792;BME280;51226;47.504;19.074;2024-01-15T12:49:08;98614.72;;;23.21;17.11
64792;BME280;51226;47.504;19.074;2024-01-15T12:52:11;98610.56;;;22.91;17.57
64792;BME280;51226;47.504;19.074;2024-01-15T12:55:14;98617.25;;;22.80;17.51
64792;BME280;51226;47.504;19.074;2024-01-15T12:58:18;98612.56;;;22.42;17.85
64792;BME280;51226;47.504;19.074;2024-01-15T13:01:23;98611.56;;;22.45;17.94
64792;BME280;51226;47.504;19.074;2024-01-15T13:04:26;98607.41;;;22.14;18.31
64792;BME280;51226;47.504;19.074;2024-01-15T13:07:30;98610.69;;;21.97;18.52
64792;BME280;51226;47.504;19.074;2024-01-15T13:10:32;98614.22;;;21.97;18.33
64792;BME280;51226;47.504;19.074;2024-01-15T13:13:35;98614.53;;;22.12;18.09
64792;BME280;51226;47.504;19.074;2024-01-15T13:16:38;98616.97;;;21.44;18.62
64792;BME280;51226;47.504;19.074;2024-01-15T13:19:41;98619.50;;;19.77;20.06
64792;BME280;51226;47.504;19.074;2024-01-15T13:22:43;98629.09;;;18.38;21.48
64792;BME280;51226;47.504;19.074;2024-01-15T13:25:47;98626.34;;;17.03;23.00
64792;BME280;51226;47.504;19.074;2024-01-15T13:28:50;98627.72;;;16.09;24.08
64792;BME280;51226;47.504;19.074;2024-01-15T13:31:53;98617.44;;;15.03;25.41
64792;BME280;51226;47.504;19.074;2024-01-15T13:34:59;98623.13;;;14.36;26.36
64792;BME280;51226;47.504;19.074;2024-01-15T13:38:02;98631.31;;;13.55;27.44
64792;BME280;51226;47.504;19.074;2024-01-15T13:41:05;98647.06;;;12.97;28.35
64792;BME280;51226;47.504;19.074;2024-01-15T13:44:08;98651.34;;;12.35;29.65
64792;BME280;51226;47.504;19.074;2024-01-15T13:47:12;98652.84;;;11.82;30.21
64792;BME280;51226;47.504;19.074;2024-01-15T13:50:16;98648.28;;;11.41;31.02
64792;BME280;51226;47.504;19.074;2024-01-15T13:53:18;98650.63;;;11.07;31.80
64792;BME280;51226;47.504;19.074;2024-01-15T13:56:22;98654.44;;;10.47;32.27
64792;BME280;51226;47.504;19.074;2024-01-15T13:59:24;98653.88;;;9.97;33.08
64792;BME280;51226;47.504;19.074;2024-01-15T14:02:28;98663.84;;;9.65;34.10
64792;BME280;51226;47.504;19.074;2024-01-15T14:05:31;98648.78;;;9.41;35.24
64792;BME280;51226;47.504;19.074;2024-01-15T14:08:35;98645.88;;;9.19;35.17
64792;BME280;51226;47.504;19.074;2024-01-15T14:11:39;98644.53;;;8.89;35.79
64792;BME280;51226;47.504;19.074;2024-01-15T14:14:41;98647.78;;;8.76;36.59
64792;BME280;51226;47.504;19.074;2024-01-15T14:17:44;98648.22;;;8.53;36.72
64792;BME280;51226;47.504;19.074;2024-01-15T14:20:47;98646.97;;;8.33;37.08
64792;BME280;51226;47.504;19.074;2024-01-15T14:23:49;98656.31;;;8.23;37.61
64792;BME280;51226;47.504;19.074;2024-01-15T14:26:52;98666.59;;;8.17;37.83
64792;BME280;51226;47.504;19.074;2024-01-15T14:29:55;98668.06;;;8.04;37.90
64792;BME280;51226;47.504;19.074;2024-01-15T14:32:57;98654.16;;;8.01;38.25
64792;BME280;51226;47.504;19.074;2024-01-15T14:36:00;98658.81;;;7.76;38.42
64792;BME280;51226;47.504;19.074;2024-01-15T14:39:03;98666.41;;;7.67;39.10
64792;BME280;51226;47.504;19.074;2024-01-15T14:42:05;98664.38;;;7.53;39.47
64792;BME280;51226;47.504;19.074;2024-01-15T14:45:08;98659.06;;;7.47;39.96
64792;BME280;51226;47.504;19.074;2024-01-15T14:48:14;98668.47;;;7.42;40.53
64792;BME280;51226;47.504;19.074;2024-01-15T14:51:17;98665.97;;;7.47;40.58
64792;BME280;51226;47.504;19.074;2024-01-15T14:54:20;98673.31;;;7.28;40.71
64792;BME280;51226;47.504;19.074;2024-01-15T14:57:26;98683.50;;;7.19;41.31
64792;BME280;51226;47.504;19.074;2024-01-15T15:00:28;98686.78;;;7.13;41.52
64792;BME280;51226;47.504;19.074;2024-01-15T15:03:31;98678.19;;;7.14;41.69
64792;BME280;51226;47.504;19.074;2024-01-15T15:06:35;98679.66;;;7.03;41.67
64792;BME280;51226;47.504;19.074;2024-01-15T15:09:38;98684.78;;;7.01;41.91
64792;BME280;51226;47.504;19.074;2024-01-15T15:12:41;98671.62;;;6.92;41.99
64792;BME280;51226;47.504;19.074;2024-01-15T15:15:43;98667.97;;;6.84;42.08
64792;BME280;51226;47.504;19.074;2024-01-15T15:18:47;98667.09;;;6.83;41.99
64792;BME280;51226;47.504;19.074;2024-01-15T15:21:50;98668.53;;;6.72;41.98
64792;BME280;51226;47.504;19.074;2024-01-15T15:24:52;98670.03;;;6.64;42.22
64792;BME280;51226;47.504;19.074;2024-01-15T15:27:55;98666.84;;;6.74;41.87
64792;BME280;51226;47.504;19.074;2024-01-15T15:30:58;98662.34;;;6.67;41.91
64792;BME280;51226;47.504;19.074;2024-01-15T15:34:01;98654.19;;;6.52;42.01
64792;BME280;51226;47.504;19.074;2024-01-15T15:37:05;98657.34;;;6.41;42.42
64792;BME280;51226;47.504;19.074;2024-01-15T15:40:10;98657.44;;;6.44;42.15
64792;BME280;51226;47.504;19.074;2024-01-15T15:43:13;98668.31;;;6.31;42.63
64792;BME280;51226;47.504;19.074;2024-01-15T15:46:16;98653.63;;;6.30;42.46
64792;BME280;51226;47.504;19.074;2024-01-15T15:49:19;98668.94;;;6.22;42.62
64792;BME280;51226;47.504;19.074;2024-01-15T15:52:22;98657.63;;;6.19;42.54
64792;BME280;51226;47.504;19.074;2024-01-15T15:55:24;98656.69;;;6.15;42.46
64792;BME280;51226;47.504;19.074;2024-01-15T15:58:27;98663.53;;;6.15;42.64
64792;BME280;51226;47.504;19.074;2024-01-15T16:01:30;98667.81;;;6.12;42.97
64792;BME280;51226;47.504;19.074;2024-01-15T16:04:33;98677.25;;;6.10;42.68
64792;BME280;51226;47.504;19.074;2024-01-15T16:07:36;98698.00;;;6.12;42.61
64792;BME280;51226;47.504;19.074;2024-01-15T16:10:39;98707.97;;;5.98;42.66
64792;BME280;51226;47.504;19.074;2024-01-15T16:13:42;98706.37;;;6.03;42.85
64792;BME280;51226;47.504;19.074;2024-01-15T16:16:45;98703.84;;;6.06;42.64
64792;BME280;51226;47.504;19.074;2024-01-15T16:20:08;98704.81;;;6.08;42.57